Time;durP1;ratioP1;P1;durP2;ratioP2;P2;SDS_P1;SDS_P2;PMS_P1;PMS_P2;Temp;Humidity;BMP_temperature;BMP_pressure;BME280_temperature;BME280_humidity;BME280_pressure;Samples;Min_cycle;Max_cycle;Signal;HPM_P1;HPM_P2
2022/03/09 00:02:03;;;;;;;11.77;8.80;;;;;;;;;;5048634;28;20206;-66
2022/03/09 00:04:29;;;;;;;19.23;9.10;;;;;;;;;;5050738;28;20250;-67
2022/03/09 00:06:54;;;;;;;13.37;8.10;;;;;;;;;;5031233;28;20198;-67
2022/03/09 00:09:19;;;;;;;15.40;8.43;;;;;;;;;;5049701;28;20197;-68
2022/03/09 00:11:45;;;;;;;12.93;7.67;;;;;;;;;;5048913;28;20284;-66
2022/03/09 00:14:10;;;;;;;11.47;8.10;;;;;;;;;;5049034;28;20328;-67
2022/03/09 00:16:35;;;;;;;13.70;8.00;;;;;;;;;;5051436;28;20170;-67
2022/03/09 00:19:00;;;;;;;11.17;8.07;;;;;;;;;;5051303;28;20280;-67
2022/03/09 00:21:25;;;;;;;13.40;8.40;;;;;;;;;;5050711;28;20284;-67
2022/03/09 00:23:51;;;;;;;11.70;8.30;;;;;;;;;;5052088;28;20170;-66
2022/03/09 00:26:16;;;;;;;12.80;8.60;;;;;;;;;;5051118;28;20185;-67
2022/03/09 00:28:41;;;;;;;13.97;8.40;;;;;;;;;;5051802;28;20717;-68
2022/03/09 00:31:07;;;;;;;12.80;8.97;;;;;;;;;;5053348;28;20182;-65
2022/03/09 00:33:32;;;;;;;13.40;8.40;;;;;;;;;;5051758;28;20259;-65
2022/03/09 00:35:58;;;;;;;12.10;8.33;;;;;;;;;;5051885;28;20173;-66
2022/03/09 00:38:23;;;;;;;11.13;7.50;;;;;;;;;;5052152;28;20170;-66
2022/03/09 00:40:50;;;;;;;11.33;8.33;;;;;;;;;;5050463;28;20212;-65
2022/03/09 00:43:15;;;;;;;18.03;10.80;;;;;;;;;;5051118;28;20552;-66
2022/03/09 00:45:40;;;;;;;14.87;8.67;;;;;;;;;;5051051;28;20174;-65
2022/03/09 00:48:05;;;;;;;13.50;8.60;;;;;;;;;;5051475;28;20259;-66
2022/03/09 00:50:31;;;;;;;14.40;8.87;;;;;;;;;;5051242;28;20189;-66
2022/03/09 00:52:56;;;;;;;13.73;9.27;;;;;;;;;;5046317;28;20171;-67
2022/03/09 00:55:21;;;;;;;11.80;8.47;;;;;;;;;;5042350;28;20196;-67
2022/03/09 00:57:46;;;;;;;13.00;8.60;;;;;;;;;;5051981;28;20205;-67
2022/03/09 01:00:11;;;;;;;14.70;9.03;;;;;;;;;;5049698;28;20201;-67
2022/03/09 01:02:40;;;;;;;14.60;8.60;;;;;;;;;;5050804;28;20321;-67
2022/03/09 01:05:06;;;;;;;13.60;9.10;;;;;;;;;;5050711;28;20248;-67
2022/03/09 01:07:31;;;;;;;12.60;8.83;;;;;;;;;;5049703;28;20332;-67
2022/03/09 01:09:56;;;;;;;11.73;8.87;;;;;;;;;;5051156;28;20190;-66
2022/03/09 01:12:21;;;;;;;13.77;9.67;;;;;;;;;;5050576;28;20223;-66
2022/03/09 01:14:47;;;;;;;12.00;8.47;;;;;;;;;;5051518;28;20468;-67
2022/03/09 01:17:12;;;;;;;13.27;8.60;;;;;;;;;;5052085;28;20185;-66
2022/03/09 01:19:37;;;;;;;15.27;9.23;;;;;;;;;;5051227;28;20259;-66
2022/03/09 01:22:02;;;;;;;12.83;8.70;;;;;;;;;;5048822;28;20652;-67
2022/03/09 01:24:27;;;;;;;12.67;8.17;;;;;;;;;;5050464;28;20181;-67
2022/03/09 01:26:53;;;;;;;14.13;8.90;;;;;;;;;;5050142;28;20228;-66
2022/03/09 01:29:18;;;;;;;14.07;8.03;;;;;;;;;;5042768;28;20201;-67
2022/03/09 01:31:43;;;;;;;12.00;8.23;;;;;;;;;;5032811;28;20174;-66
2022/03/09 01:34:08;;;;;;;14.93;8.47;;;;;;;;;;5062614;28;20181;-67
2022/03/09 01:36:34;;;;;;;13.47;8.63;;;;;;;;;;5057630;28;20189;-66
2022/03/09 01:38:59;;;;;;;12.33;8.40;;;;;;;;;;5050622;28;20294;-67
2022/03/09 01:41:24;;;;;;;13.67;7.83;;;;;;;;;;5049118;28;20660;-66
2022/03/09 01:44:05;;;;;;;14.67;8.60;;;;;;;;;;5050001;28;20177;-67
2022/03/09 01:46:30;;;;;;;11.27;7.83;;;;;;;;;;5031776;28;20571;-66
2022/03/09 01:48:55;;;;;;;10.20;7.37;;;;;;;;;;5050025;28;20210;-67
2022/03/09 01:51:20;;;;;;;12.07;8.40;;;;;;;;;;5050778;28;20236;-66
2022/03/09 01:53:45;;;;;;;15.53;7.97;;;;;;;;;;5049651;28;20174;-66
2022/03/09 01:56:10;;;;;;;11.63;8.17;;;;;;;;;;5049875;28;20173;-66
2022/03/09 01:58:35;;;;;;;13.50;8.97;;;;;;;;;;5049643;28;20268;-67
2022/03/09 02:01:01;;;;;;;14.67;8.50;;;;;;;;;;5049243;28;20204;-66
2022/03/09 02:03:26;;;;;;;15.67;8.13;;;;;;;;;;5046925;28;20888;-67
2022/03/09 02:05:51;;;;;;;13.40;8.37;;;;;;;;;;5043857;28;20174;-66
2022/03/09 02:11:00;;;;;;;11.67;7.77;;;;;;;;;;5044416;28;20746;-66
2022/03/09 02:13:25;;;;;;;13.30;9.27;;;;;;;;;;5045275;28;20186;-65
2022/03/09 02:15:51;;;;;;;10.73;7.93;;;;;;;;;;5049375;28;20268;-67
2022/03/09 02:18:16;;;;;;;13.57;8.00;;;;;;;;;;5049979;28;20186;-67
2022/03/09 02:20:42;;;;;;;11.00;7.60;;;;;;;;;;5049569;28;20293;-67
2022/03/09 02:23:07;;;;;;;13.60;8.33;;;;;;;;;;5048410;28;20275;-67
2022/03/09 02:25:33;;;;;;;11.63;7.53;;;;;;;;;;5049732;28;20622;-66
2022/03/09 02:28:00;;;;;;;11.80;7.43;;;;;;;;;;5048728;28;20206;-67
2022/03/09 02:30:25;;;;;;;14.63;8.00;;;;;;;;;;5048389;28;20229;-67
2022/03/09 02:32:50;;;;;;;12.07;7.17;;;;;;;;;;5048870;28;20210;-67
2022/03/09 02:35:16;;;;;;;13.43;7.87;;;;;;;;;;5049441;28;20178;-67
2022/03/09 02:37:42;;;;;;;12.10;7.97;;;;;;;;;;5048633;28;20240;-67
2022/03/09 02:40:08;;;;;;;13.33;8.20;;;;;;;;;;5061860;22;20235;-68
2022/03/09 02:42:33;;;;;;;10.07;7.57;;;;;;;;;;5048328;28;20189;-68
2022/03/09 02:44:58;;;;;;;12.87;8.60;;;;;;;;;;5051503;28;20173;-68
2022/03/09 02:47:23;;;;;;;14.97;8.90;;;;;;;;;;5031436;28;20591;-68
2022/03/09 02:49:49;;;;;;;12.03;7.57;;;;;;;;;;5047917;28;20201;-68
2022/03/09 02:52:15;;;;;;;12.23;8.00;;;;;;;;;;5048374;28;20273;-68
2022/03/09 02:54:41;;;;;;;11.57;7.90;;;;;;;;;;5049485;28;20177;-68
2022/03/09 02:57:06;;;;;;;13.07;8.17;;;;;;;;;;5049551;28;20189;-68
2022/03/09 02:59:31;;;;;;;12.43;8.00;;;;;;;;;;5045700;28;20280;-68
2022/03/09 03:01:56;;;;;;;12.00;7.77;;;;;;;;;;5050117;28;20184;-68
2022/03/09 03:04:22;;;;;;;11.47;7.83;;;;;;;;;;5040874;28;20643;-68
2022/03/09 03:06:47;;;;;;;13.23;7.63;;;;;;;;;;5048914;28;20193;-68
2022/03/09 03:09:12;;;;;;;13.37;8.50;;;;;;;;;;5047814;28;20174;-68
2022/03/09 03:11:37;;;;;;;12.83;8.80;;;;;;;;;;5048945;28;20173;-67
2022/03/09 03:14:02;;;;;;;12.77;8.90;;;;;;;;;;5042884;28;20167;-68
2022/03/09 03:16:27;;;;;;;12.77;8.27;;;;;;;;;;5049471;28;20694;-68
2022/03/09 03:18:53;;;;;;;11.63;8.23;;;;;;;;;;5035825;28;20186;-68
2022/03/09 03:21:18;;;;;;;12.73;7.97;;;;;;;;;;5048857;28;20197;-68
2022/03/09 03:23:43;;;;;;;12.00;7.97;;;;;;;;;;5043225;28;20273;-67
2022/03/09 03:26:08;;;;;;;14.67;8.07;;;;;;;;;;5048462;28;20191;-67
2022/03/09 03:28:33;;;;;;;14.57;8.27;;;;;;;;;;5051242;28;20696;-67
2022/03/09 03:30:59;;;;;;;13.40;7.87;;;;;;;;;;5053977;28;20273;-67
2022/03/09 03:33:24;;;;;;;14.53;8.07;;;;;;;;;;5051263;28;20188;-67
2022/03/09 03:35:49;;;;;;;13.27;7.83;;;;;;;;;;5047839;28;20166;-67
2022/03/09 03:38:15;;;;;;;11.47;8.07;;;;;;;;;;5052877;28;20216;-67
2022/03/09 03:40:40;;;;;;;10.93;8.00;;;;;;;;;;5054427;28;20279;-68
2022/03/09 03:43:05;;;;;;;12.77;8.30;;;;;;;;;;5048925;28;20186;-67
2022/03/09 03:45:31;;;;;;;11.70;8.27;;;;;;;;;;5049352;28;20177;-68
2022/03/09 03:47:56;;;;;;;11.97;7.80;;;;;;;;;;5048838;28;20212;-68
2022/03/09 03:50:21;;;;;;;15.87;8.40;;;;;;;;;;5053039;28;20238;-67
2022/03/09 03:52:46;;;;;;;13.07;8.53;;;;;;;;;;5050518;28;20654;-67
2022/03/09 03:55:11;;;;;;;13.17;8.00;;;;;;;;;;5052191;28;20200;-68
2022/03/09 03:57:37;;;;;;;14.20;8.27;;;;;;;;;;5042396;28;20319;-67
2022/03/09 04:00:03;;;;;;;13.70;8.17;;;;;;;;;;5048391;28;20533;-67
2022/03/09 04:02:28;;;;;;;12.80;8.90;;;;;;;;;;5052223;28;20247;-68
2022/03/09 04:04:53;;;;;;;10.63;7.80;;;;;;;;;;5052614;28;20666;-68
2022/03/09 04:07:19;;;;;;;14.03;9.00;;;;;;;;;;5049059;28;20198;-67
2022/03/09 04:09:44;;;;;;;11.70;7.93;;;;;;;;;;5049321;28;20213;-67
2022/03/09 04:12:10;;;;;;;12.37;8.93;;;;;;;;;;5047105;28;20648;-67
2022/03/09 04:14:35;;;;;;;16.40;8.63;;;;;;;;;;5048568;28;20170;-67
2022/03/09 04:17:00;;;;;;;14.77;9.13;;;;;;;;;;5051948;28;20220;-67
2022/03/09 04:19:25;;;;;;;18.17;9.40;;;;;;;;;;5049970;28;20327;-68
2022/03/09 04:21:51;;;;;;;17.13;8.43;;;;;;;;;;5050946;28;20185;-67
2022/03/09 04:24:16;;;;;;;11.87;8.57;;;;;;;;;;5050782;28;20217;-68
2022/03/09 04:26:41;;;;;;;12.87;8.93;;;;;;;;;;5046477;28;20277;-67
2022/03/09 04:29:06;;;;;;;13.30;9.70;;;;;;;;;;5048398;28;20182;-67
2022/03/09 04:31:31;;;;;;;14.73;8.83;;;;;;;;;;5051707;28;20555;-68
2022/03/09 04:33:57;;;;;;;12.17;7.87;;;;;;;;;;5052414;28;20177;-68
2022/03/09 04:36:22;;;;;;;12.37;7.63;;;;;;;;;;5051279;28;20185;-67
2022/03/09 04:38:47;;;;;;;15.00;9.00;;;;;;;;;;5051316;28;20264;-67
2022/03/09 04:41:12;;;;;;;14.27;8.87;;;;;;;;;;5048724;28;20217;-68
2022/03/09 04:43:38;;;;;;;13.47;8.70;;;;;;;;;;5045266;28;20178;-67
2022/03/09 04:46:03;;;;;;;12.93;8.43;;;;;;;;;;5050367;28;20192;-68
2022/03/09 04:48:28;;;;;;;17.33;9.73;;;;;;;;;;5051414;28;20296;-67
2022/03/09 04:50:53;;;;;;;13.17;8.63;;;;;;;;;;5052651;28;20228;-67
2022/03/09 04:53:18;;;;;;;14.17;8.90;;;;;;;;;;5047444;28;20174;-67
2022/03/09 04:55:44;;;;;;;13.23;8.17;;;;;;;;;;5047667;28;20185;-68
2022/03/09 04:58:09;;;;;;;16.07;9.47;;;;;;;;;;5049810;28;20254;-67
2022/03/09 05:00:34;;;;;;;14.03;9.77;;;;;;;;;;5049998;28;20216;-67
2022/03/09 05:03:00;;;;;;;14.43;9.20;;;;;;;;;;5048371;28;20178;-67
2022/03/09 05:05:25;;;;;;;18.57;11.03;;;;;;;;;;5049939;28;20189;-67
2022/03/09 05:07:50;;;;;;;14.47;9.13;;;;;;;;;;5044955;28;20204;-68
2022/03/09 05:10:15;;;;;;;17.13;8.80;;;;;;;;;;5048791;28;20748;-68
2022/03/09 05:12:40;;;;;;;14.57;9.00;;;;;;;;;;5050508;28;20655;-67
2022/03/09 05:15:06;;;;;;;15.57;9.80;;;;;;;;;;5049071;28;20639;-67
2022/03/09 05:17:32;;;;;;;14.07;9.07;;;;;;;;;;5050818;28;20523;-68
2022/03/09 05:19:57;;;;;;;13.87;9.20;;;;;;;;;;5049832;28;20569;-67
2022/03/09 05:22:22;;;;;;;12.53;9.00;;;;;;;;;;5049582;28;20661;-67
2022/03/09 05:24:47;;;;;;;12.63;8.73;;;;;;;;;;5051392;28;20264;-67
2022/03/09 05:27:12;;;;;;;15.57;9.50;;;;;;;;;;5048992;28;20255;-66
2022/03/09 05:29:38;;;;;;;14.97;8.73;;;;;;;;;;5031390;28;20588;-68
2022/03/09 05:32:04;;;;;;;15.47;9.23;;;;;;;;;;5048433;28;20632;-67
2022/03/09 05:34:29;;;;;;;13.97;9.03;;;;;;;;;;5049831;28;20205;-68
2022/03/09 05:36:54;;;;;;;12.03;8.93;;;;;;;;;;5048735;28;20671;-67
2022/03/09 05:39:19;;;;;;;13.43;8.93;;;;;;;;;;5049713;28;20197;-68
2022/03/09 05:41:44;;;;;;;13.50;9.27;;;;;;;;;;5049545;28;20264;-67
2022/03/09 05:44:11;;;;;;;13.67;8.70;;;;;;;;;;5050122;28;20363;-68
2022/03/09 05:46:36;;;;;;;17.03;9.47;;;;;;;;;;5048581;28;20716;-67
2022/03/09 05:49:02;;;;;;;16.03;9.73;;;;;;;;;;5048489;28;20201;-67
2022/03/09 05:51:27;;;;;;;14.47;9.03;;;;;;;;;;5050510;28;20170;-67
2022/03/09 05:53:52;;;;;;;15.80;9.27;;;;;;;;;;5049687;28;20192;-68
2022/03/09 05:56:17;;;;;;;15.90;8.97;;;;;;;;;;5042399;28;20603;-67
2022/03/09 05:58:42;;;;;;;15.93;9.60;;;;;;;;;;5048177;28;20584;-68
2022/03/09 06:01:08;;;;;;;15.23;9.23;;;;;;;;;;5029697;28;20228;-67
2022/03/09 06:03:33;;;;;;;15.27;9.10;;;;;;;;;;5048451;28;20208;-68
2022/03/09 06:05:59;;;;;;;15.90;10.03;;;;;;;;;;5047436;28;20247;-68
2022/03/09 06:08:24;;;;;;;12.87;8.97;;;;;;;;;;5047201;28;20201;-68
2022/03/09 06:10:50;;;;;;;14.30;9.80;;;;;;;;;;5028821;28;20185;-68
2022/03/09 06:13:15;;;;;;;17.27;10.13;;;;;;;;;;5049943;28;20264;-68
2022/03/09 06:15:41;;;;;;;18.30;10.17;;;;;;;;;;5044863;28;20260;-67
2022/03/09 06:18:06;;;;;;;17.80;10.27;;;;;;;;;;5049138;28;20667;-68
2022/03/09 06:20:31;;;;;;;19.27;10.70;;;;;;;;;;5044795;28;20201;-67
2022/03/09 06:22:56;;;;;;;16.80;10.07;;;;;;;;;;5046980;28;20198;-66
2022/03/09 06:25:21;;;;;;;15.37;10.63;;;;;;;;;;5029270;28;20392;-68
2022/03/09 06:27:50;;;;;;;17.70;11.40;;;;;;;;;;5047993;28;20224;-67
2022/03/09 06:30:16;;;;;;;22.57;11.67;;;;;;;;;;5047345;28;20189;-68
2022/03/09 06:32:42;;;;;;;19.10;12.37;;;;;;;;;;5044064;28;20628;-67
2022/03/09 06:35:08;;;;;;;21.00;14.07;;;;;;;;;;5049344;28;20196;-68
2022/03/09 06:37:33;;;;;;;23.27;14.90;;;;;;;;;;5050425;28;20264;-67
2022/03/09 06:39:59;;;;;;;22.53;15.87;;;;;;;;;;5047935;28;20686;-68
2022/03/09 06:42:24;;;;;;;27.73;16.37;;;;;;;;;;5047690;28;20216;-67
2022/03/09 06:44:49;;;;;;;27.30;16.20;;;;;;;;;;5050858;28;20547;-67
2022/03/09 06:47:15;;;;;;;30.50;16.63;;;;;;;;;;5028959;28;20676;-67
2022/03/09 06:49:40;;;;;;;27.50;14.97;;;;;;;;;;5050431;28;20304;-68
2022/03/09 06:52:05;;;;;;;25.73;14.93;;;;;;;;;;5051145;28;20177;-68
2022/03/09 06:54:31;;;;;;;31.40;14.93;;;;;;;;;;5054708;28;20174;-67
2022/03/09 06:56:56;;;;;;;25.60;12.87;;;;;;;;;;5040007;28;20177;-68
2022/03/09 06:59:21;;;;;;;19.43;11.87;;;;;;;;;;5053282;28;20259;-68
2022/03/09 07:01:46;;;;;;;21.13;11.13;;;;;;;;;;5054341;28;20688;-67
2022/03/09 07:04:11;;;;;;;18.93;10.60;;;;;;;;;;5054003;28;20288;-69
2022/03/09 07:06:36;;;;;;;19.43;10.20;;;;;;;;;;5052716;28;20219;-67
2022/03/09 07:09:02;;;;;;;15.43;10.13;;;;;;;;;;5053317;28;20201;-67
2022/03/09 07:11:27;;;;;;;18.17;9.67;;;;;;;;;;5049740;28;20184;-67
2022/03/09 07:13:52;;;;;;;16.07;9.70;;;;;;;;;;5054368;28;20222;-69
2022/03/09 07:16:17;;;;;;;13.97;9.37;;;;;;;;;;5054707;28;20184;-67
2022/03/09 07:18:42;;;;;;;13.87;9.60;;;;;;;;;;5054528;28;20185;-66
2022/03/09 07:21:08;;;;;;;16.30;10.00;;;;;;;;;;5029061;28;20190;-67
2022/03/09 07:23:33;;;;;;;16.60;8.47;;;;;;;;;;5054534;28;20664;-66
2022/03/09 07:25:58;;;;;;;15.43;8.83;;;;;;;;;;5048804;28;20182;-66
2022/03/09 07:28:23;;;;;;;11.10;8.83;;;;;;;;;;5052761;28;20201;-66
2022/03/09 07:30:48;;;;;;;14.80;9.80;;;;;;;;;;5053916;28;20578;-67
2022/03/09 07:33:15;;;;;;;15.17;9.40;;;;;;;;;;5054364;28;20170;-67
2022/03/09 07:35:40;;;;;;;11.37;8.50;;;;;;;;;;5053711;28;20671;-67
2022/03/09 07:38:07;;;;;;;17.87;9.97;;;;;;;;;;5048926;28;20169;-66
2022/03/09 07:40:32;;;;;;;17.47;9.07;;;;;;;;;;5052381;28;20216;-67
2022/03/09 07:42:57;;;;;;;14.07;9.47;;;;;;;;;;5053975;28;20174;-67
2022/03/09 07:45:22;;;;;;;14.27;9.70;;;;;;;;;;5052935;28;20174;-67
2022/03/09 07:47:47;;;;;;;15.07;10.43;;;;;;;;;;5043421;28;20757;-67
2022/03/09 07:50:13;;;;;;;12.63;8.83;;;;;;;;;;5053495;28;20292;-67
2022/03/09 07:52:39;;;;;;;20.83;10.80;;;;;;;;;;5053367;28;20166;-67
2022/03/09 07:55:05;;;;;;;13.27;9.60;;;;;;;;;;5050795;28;20216;-67
2022/03/09 07:57:30;;;;;;;16.00;10.63;;;;;;;;;;5053440;28;20169;-67
2022/03/09 07:59:55;;;;;;;15.97;10.73;;;;;;;;;;5052469;28;20606;-67
2022/03/09 08:02:21;;;;;;;16.83;11.37;;;;;;;;;;5044814;28;20216;-67
2022/03/09 08:04:46;;;;;;;15.37;11.07;;;;;;;;;;5053250;28;20182;-67
2022/03/09 08:07:11;;;;;;;18.70;11.07;;;;;;;;;;5044525;28;20667;-67
2022/03/09 08:09:36;;;;;;;20.23;11.00;;;;;;;;;;5052761;28;20397;-67
2022/03/09 08:12:02;;;;;;;17.00;10.90;;;;;;;;;;5047998;28;20544;-66
2022/03/09 08:14:27;;;;;;;16.70;11.43;;;;;;;;;;5052845;28;20169;-67
2022/03/09 08:16:52;;;;;;;18.97;9.97;;;;;;;;;;5049732;28;20184;-67
2022/03/09 08:19:18;;;;;;;16.43;10.37;;;;;;;;;;5035307;28;20198;-67
2022/03/09 08:21:43;;;;;;;16.67;11.13;;;;;;;;;;5048117;28;20174;-67
2022/03/09 08:24:08;;;;;;;16.13;10.60;;;;;;;;;;5052139;28;20181;-67
2022/03/09 08:26:33;;;;;;;16.47;10.40;;;;;;;;;;5052564;28;20588;-66
2022/03/09 08:28:58;;;;;;;14.97;9.60;;;;;;;;;;5053516;28;20198;-67
2022/03/09 08:31:24;;;;;;;13.77;10.27;;;;;;;;;;5053347;28;20598;-67
2022/03/09 08:33:49;;;;;;;15.47;10.67;;;;;;;;;;5053434;28;20632;-67
2022/03/09 08:36:14;;;;;;;17.53;10.43;;;;;;;;;;5052322;28;20185;-67
2022/03/09 08:38:39;;;;;;;16.77;9.60;;;;;;;;;;5052883;28;20188;-67
2022/03/09 08:41:05;;;;;;;15.87;9.40;;;;;;;;;;5051989;28;20213;-67
2022/03/09 08:43:31;;;;;;;13.07;9.53;;;;;;;;;;5052797;28;20177;-66
2022/03/09 08:45:56;;;;;;;13.83;9.17;;;;;;;;;;5052751;28;20312;-66
2022/03/09 08:48:21;;;;;;;12.83;9.13;;;;;;;;;;5056252;28;20698;-67
2022/03/09 08:50:46;;;;;;;13.27;10.43;;;;;;;;;;5051968;28;20570;-66
2022/03/09 08:53:11;;;;;;;14.40;9.07;;;;;;;;;;5054009;28;20523;-68
2022/03/09 08:55:37;;;;;;;14.23;9.30;;;;;;;;;;5052290;28;20544;-66
2022/03/09 08:58:02;;;;;;;14.47;9.57;;;;;;;;;;5054783;28;20665;-67
2022/03/09 09:00:27;;;;;;;12.60;8.73;;;;;;;;;;5063120;28;20662;-66
2022/03/09 09:02:53;;;;;;;14.00;10.23;;;;;;;;;;5038497;28;20598;-67
2022/03/09 09:05:19;;;;;;;12.93;9.67;;;;;;;;;;5052405;28;20701;-67
2022/03/09 09:07:44;;;;;;;12.70;9.00;;;;;;;;;;5053325;28;20220;-67
2022/03/09 09:10:09;;;;;;;12.97;9.60;;;;;;;;;;5050264;28;20208;-67
2022/03/09 09:12:34;;;;;;;13.33;9.73;;;;;;;;;;5051248;28;20639;-66
2022/03/09 09:15:00;;;;;;;14.07;9.60;;;;;;;;;;5051418;28;20662;-69
2022/03/09 09:17:25;;;;;;;12.30;9.03;;;;;;;;;;5052487;28;20689;-69
2022/03/09 09:19:50;;;;;;;14.90;9.60;;;;;;;;;;5052402;28;20213;-67
2022/03/09 09:22:15;;;;;;;17.70;9.60;;;;;;;;;;5052344;28;20632;-68
2022/03/09 09:24:41;;;;;;;14.73;9.53;;;;;;;;;;5052122;28;20219;-68
2022/03/09 09:27:06;;;;;;;15.37;10.30;;;;;;;;;;5051315;28;20189;-68
2022/03/09 09:29:31;;;;;;;18.37;10.43;;;;;;;;;;5044145;28;20193;-69
2022/03/09 09:31:56;;;;;;;14.63;9.77;;;;;;;;;;5051488;28;20201;-68
2022/03/09 09:34:22;;;;;;;16.03;9.77;;;;;;;;;;5050942;28;20269;-68
2022/03/09 09:36:47;;;;;;;16.23;9.50;;;;;;;;;;5050787;28;20590;-69
2022/03/09 09:39:13;;;;;;;13.00;10.47;;;;;;;;;;5051117;28;20173;-68
2022/03/09 09:41:40;;;;;;;14.87;11.03;;;;;;;;;;5052104;28;20260;-68
2022/03/09 09:44:05;;;;;;;12.37;9.93;;;;;;;;;;5052018;28;20897;-68
2022/03/09 09:46:31;;;;;;;13.57;9.97;;;;;;;;;;5052019;28;20205;-67
2022/03/09 09:48:57;;;;;;;18.43;11.17;;;;;;;;;;5051648;28;20288;-67
2022/03/09 09:51:23;;;;;;;15.47;10.47;;;;;;;;;;5051002;28;20303;-68
2022/03/09 09:53:48;;;;;;;13.47;9.40;;;;;;;;;;5051327;28;20188;-68
2022/03/09 09:56:13;;;;;;;20.03;11.33;;;;;;;;;;5050579;28;20653;-67
2022/03/09 09:58:40;;;;;;;18.33;10.97;;;;;;;;;;5050409;28;20173;-68
2022/03/09 10:01:06;;;;;;;14.98;10.63;;;;;;;;;;5044141;28;20201;-68
2022/03/09 10:03:31;;;;;;;16.80;11.27;;;;;;;;;;5046840;28;20595;-69
2022/03/09 10:05:56;;;;;;;15.10;11.43;;;;;;;;;;5045479;28;20273;-67
2022/03/09 10:08:21;;;;;;;15.90;11.07;;;;;;;;;;5046753;28;20202;-67
2022/03/09 10:10:57;;;;;;;15.45;11.75;;;;;;;;;;5050064;28;20247;-67
2022/03/09 10:13:24;;;;;;;14.10;10.83;;;;;;;;;;5048468;28;20269;-67
2022/03/09 10:16:05;;;;;;;16.60;11.07;;;;;;;;;;5047483;28;20265;-67
2022/03/09 10:18:31;;;;;;;14.53;11.70;;;;;;;;;;5049183;28;20189;-67
2022/03/09 10:21:07;;;;;;;18.10;10.93;;;;;;;;;;5047095;28;20571;-67
2022/03/09 10:23:32;;;;;;;14.63;11.40;;;;;;;;;;5040978;28;20189;-68
2022/03/09 10:26:01;;;;;;;14.87;10.97;;;;;;;;;;5045089;28;20186;-67
2022/03/09 10:28:26;;;;;;;21.92;11.15;;;;;;;;;;5049515;28;20201;-68
2022/03/09 10:30:51;;;;;;;15.25;11.30;;;;;;;;;;5051184;28;20189;-67
2022/03/09 10:33:18;;;;;;;15.25;11.77;;;;;;;;;;5031790;28;20588;-68
2022/03/09 10:35:47;;;;;;;14.43;11.32;;;;;;;;;;5051825;28;20186;-67
2022/03/09 10:38:16;;;;;;;17.42;12.73;;;;;;;;;;5050712;28;20170;-68
2022/03/09 10:40:45;;;;;;;14.68;12.18;;;;;;;;;;5053990;28;20205;-68
2022/03/09 10:43:12;;;;;;;19.90;12.75;;;;;;;;;;5050829;28;20185;-68
2022/03/09 10:45:53;;;;;;;18.88;13.32;;;;;;;;;;5047321;28;20169;-68
2022/03/09 10:48:18;;;;;;;19.13;14.55;;;;;;;;;;5048386;28;20193;-68
2022/03/09 10:50:49;;;;;;;18.88;14.60;;;;;;;;;;5047470;28;20214;-68
2022/03/09 10:53:16;;;;;;;19.77;15.38;;;;;;;;;;5052646;28;20184;-68
2022/03/09 10:55:41;;;;;;;17.08;13.50;;;;;;;;;;5048966;28;20180;-68
2022/03/09 10:58:08;;;;;;;18.15;12.95;;;;;;;;;;5046476;28;20186;-69
2022/03/09 11:00:34;;;;;;;17.27;13.82;;;;;;;;;;5050586;28;20275;-67
2022/03/09 11:03:03;;;;;;;18.90;12.43;;;;;;;;;;5042429;28;20599;-68
2022/03/09 11:05:29;;;;;;;18.40;12.95;;;;;;;;;;5050144;28;20178;-68
2022/03/09 11:07:54;;;;;;;18.30;12.60;;;;;;;;;;5029813;28;20208;-67
2022/03/09 11:10:19;;;;;;;19.77;13.95;;;;;;;;;;5050635;28;20268;-67
2022/03/09 11:12:46;;;;;;;40.83;15.38;;;;;;;;;;5048601;28;20612;-67
2022/03/09 11:15:13;;;;;;;18.33;12.85;;;;;;;;;;5050468;28;20253;-69
2022/03/09 11:17:39;;;;;;;19.30;14.40;;;;;;;;;;5050742;28;20170;-72
2022/03/09 11:20:04;;;;;;;18.88;13.65;;;;;;;;;;5049650;28;20196;-68
2022/03/09 11:22:30;;;;;;;18.75;14.25;;;;;;;;;;5048139;28;20192;-68
2022/03/09 11:24:56;;;;;;;18.67;14.35;;;;;;;;;;5043569;28;20182;-68
2022/03/09 11:27:21;;;;;;;16.92;13.52;;;;;;;;;;5043670;28;20202;-67
2022/03/09 11:29:46;;;;;;;23.85;15.00;;;;;;;;;;5050761;28;20196;-68
2022/03/09 11:32:14;;;;;;;17.42;13.93;;;;;;;;;;5049787;28;20162;-68
2022/03/09 11:34:46;;;;;;;21.67;14.63;;;;;;;;;;5049454;28;20650;-66
2022/03/09 11:37:11;;;;;;;23.65;15.32;;;;;;;;;;5050284;28;20177;-68
2022/03/09 11:39:37;;;;;;;16.88;13.00;;;;;;;;;;5053946;28;20201;-68
2022/03/09 11:42:21;;;;;;;16.77;13.18;;;;;;;;;;5039821;28;20414;-67
2022/03/09 11:44:50;;;;;;;18.75;14.23;;;;;;;;;;5043116;28;20177;-67
2022/03/09 11:47:16;;;;;;;20.80;14.45;;;;;;;;;;5044923;28;20208;-67
2022/03/09 11:49:41;;;;;;;20.00;14.50;;;;;;;;;;5035825;28;20301;-70
2022/03/09 11:52:08;;;;;;;20.27;15.65;;;;;;;;;;5049927;28;20174;-68
2022/03/09 11:54:39;;;;;;;22.23;15.80;;;;;;;;;;5056433;28;20422;-68
2022/03/09 11:57:04;;;;;;;22.65;14.35;;;;;;;;;;5051344;28;20260;-67
2022/03/09 11:59:30;;;;;;;24.85;14.85;;;;;;;;;;5053417;28;20264;-69
2022/03/09 12:01:55;;;;;;;23.52;15.02;;;;;;;;;;5053767;28;20253;-68
2022/03/09 12:04:40;;;;;;;22.20;16.02;;;;;;;;;;5051989;28;20167;-67
2022/03/09 12:07:06;;;;;;;23.70;15.55;;;;;;;;;;5033467;28;20513;-68
2022/03/09 12:09:50;;;;;;;19.90;14.38;;;;;;;;;;5044548;28;20277;-66
2022/03/09 12:12:15;;;;;;;22.13;15.70;;;;;;;;;;5050753;28;20261;-68
2022/03/09 12:15:00;;;;;;;22.98;14.77;;;;;;;;;;5050586;28;20252;-68
2022/03/09 12:17:29;;;;;;;21.92;16.60;;;;;;;;;;5053626;28;20435;-68
2022/03/09 12:20:13;;;;;;;24.20;16.63;;;;;;;;;;5049825;28;20196;-66
2022/03/09 12:22:57;;;;;;;25.00;15.88;;;;;;;;;;5055893;28;20173;-68
2022/03/09 12:25:41;;;;;;;25.45;15.95;;;;;;;;;;5052720;28;20208;-66
2022/03/09 12:28:22;;;;;;;22.42;14.45;;;;;;;;;;5052959;28;20204;-66
2022/03/09 12:30:48;;;;;;;21.30;15.18;;;;;;;;;;5051384;28;20197;-67
2022/03/09 12:33:24;;;;;;;20.52;14.52;;;;;;;;;;5052071;28;20173;-66
2022/03/09 12:35:49;;;;;;;19.75;14.95;;;;;;;;;;5045208;28;20174;-67
2022/03/09 12:38:14;;;;;;;20.13;14.48;;;;;;;;;;5045308;28;20709;-67
2022/03/09 12:40:40;;;;;;;23.88;14.63;;;;;;;;;;5039981;28;20236;-66
2022/03/09 12:43:05;;;;;;;21.92;15.65;;;;;;;;;;5051408;28;20663;-67
2022/03/09 12:45:48;;;;;;;22.13;14.63;;;;;;;;;;5049220;28;20178;-67
2022/03/09 12:48:16;;;;;;;22.20;15.13;;;;;;;;;;5051734;28;20212;-66
2022/03/09 12:50:41;;;;;;;22.65;15.27;;;;;;;;;;5051446;28;20624;-67
2022/03/09 12:53:07;;;;;;;23.40;16.15;;;;;;;;;;5055493;28;20207;-67
2022/03/09 12:55:32;;;;;;;24.20;16.33;;;;;;;;;;5052512;28;20188;-69
2022/03/09 12:57:58;;;;;;;24.13;16.70;;;;;;;;;;5052806;28;20776;-66
2022/03/09 13:00:25;;;;;;;26.33;16.85;;;;;;;;;;5032169;28;20493;-67
2022/03/09 13:02:52;;;;;;;21.88;16.15;;;;;;;;;;5032296;28;20194;-66
2022/03/09 13:05:21;;;;;;;20.73;15.82;;;;;;;;;;5049980;28;20178;-67
2022/03/09 13:07:54;;;;;;;25.48;17.42;;;;;;;;;;5046032;28;20259;-67
2022/03/09 13:10:19;;;;;;;23.83;16.15;;;;;;;;;;5045233;28;20205;-67
2022/03/09 13:12:51;;;;;;;25.27;18.80;;;;;;;;;;5052577;28;20177;-67
2022/03/09 13:15:17;;;;;;;24.42;17.88;;;;;;;;;;5052021;28;20449;-67
2022/03/09 13:17:44;;;;;;;23.42;17.23;;;;;;;;;;5052480;28;20208;-66
2022/03/09 13:20:09;;;;;;;24.73;17.88;;;;;;;;;;5038904;28;21013;-67
2022/03/09 13:22:41;;;;;;;27.33;16.85;;;;;;;;;;5047677;28;20259;-67
2022/03/09 13:25:06;;;;;;;27.10;18.05;;;;;;;;;;5048215;28;20174;-67
2022/03/09 13:27:32;;;;;;;25.75;17.25;;;;;;;;;;5048246;28;20212;-67
2022/03/09 13:29:58;;;;;;;30.08;17.60;;;;;;;;;;5034186;28;20186;-66
2022/03/09 13:32:30;;;;;;;28.30;17.67;;;;;;;;;;5050753;28;20169;-67
2022/03/09 13:34:59;;;;;;;26.75;17.27;;;;;;;;;;5051501;28;20215;-67
2022/03/09 13:37:40;;;;;;;26.45;18.58;;;;;;;;;;5046260;28;20236;-67
2022/03/09 13:40:07;;;;;;;27.23;17.80;;;;;;;;;;5045769;28;20207;-67
2022/03/09 13:42:37;;;;;;;25.88;19.08;;;;;;;;;;5036872;28;20169;-67
2022/03/09 13:45:06;;;;;;;25.75;18.45;;;;;;;;;;5044216;28;20257;-68
2022/03/09 13:47:43;;;;;;;23.25;17.45;;;;;;;;;;5051826;28;20193;-68
2022/03/09 13:50:15;;;;;;;26.80;18.30;;;;;;;;;;5045827;28;20231;-68
2022/03/09 13:52:40;;;;;;;23.92;17.63;;;;;;;;;;5049809;28;20603;-67
2022/03/09 13:55:06;;;;;;;25.70;16.97;;;;;;;;;;5050495;28;20174;-68
2022/03/09 13:57:32;;;;;;;24.88;17.27;;;;;;;;;;5050542;28;21932;-68
2022/03/09 13:59:58;;;;;;;26.45;17.67;;;;;;;;;;5050812;28;20289;-69
2022/03/09 14:02:24;;;;;;;27.70;18.77;;;;;;;;;;5049753;28;20593;-68
2022/03/09 14:04:50;;;;;;;30.40;17.35;;;;;;;;;;5043509;28;20174;-68
2022/03/09 14:07:15;;;;;;;23.30;17.45;;;;;;;;;;5043666;28;20223;-68
2022/03/09 14:09:41;;;;;;;25.33;17.33;;;;;;;;;;5048169;28;20201;-68
2022/03/09 14:12:15;;;;;;;27.67;17.52;;;;;;;;;;5048964;28;20256;-68
2022/03/09 14:14:40;;;;;;;24.15;17.08;;;;;;;;;;5050995;28;20180;-68
2022/03/09 14:17:06;;;;;;;25.20;17.08;;;;;;;;;;5050953;28;20169;-68
2022/03/09 14:19:31;;;;;;;26.00;17.17;;;;;;;;;;5042858;28;20211;-68
2022/03/09 14:21:57;;;;;;;29.02;18.73;;;;;;;;;;5049807;28;20173;-67